createdAt,value
2019-01-16T00:00:29.213Z,2.60
2019-01-16T00:03:14.364Z,2.50
2019-01-16T00:06:00.172Z,2.50
2019-01-16T00:08:45.965Z,2.40
2019-01-16T00:11:31.920Z,2.40
2019-01-16T00:14:17.648Z,2.40
2019-01-16T00:17:10.341Z,2.40
2019-01-16T00:20:03.261Z,2.40
2019-01-16T00:22:48.790Z,2.40
2019-01-16T00:25:48.106Z,2.40
2019-01-16T00:28:37.774Z,2.50
2019-01-16T00:31:21.974Z,2.50
2019-01-16T00:34:09.121Z,2.50
2019-01-16T00:37:05.316Z,2.40
2019-01-16T00:39:50.874Z,2.40
2019-01-16T00:42:44.633Z,2.40
2019-01-16T00:45:22.608Z,2.40
2019-01-16T00:48:15.629Z,2.40
2019-01-16T00:50:53.537Z,2.40
2019-01-16T00:53:46.805Z,2.40
2019-01-16T00:56:32.513Z,2.40
2019-01-16T00:59:20.965Z,2.40
2019-01-16T01:02:06.547Z,2.50
2019-01-16T01:04:53.967Z,2.60
2019-01-16T01:07:38.582Z,2.60
2019-01-16T01:10:28.677Z,2.60
2019-01-16T01:13:24.435Z,2.50
2019-01-16T01:16:08.984Z,2.40
2019-01-16T01:18:56.113Z,2.40
2019-01-16T01:21:55.194Z,2.40
2019-01-16T01:24:40.977Z,2.40
2019-01-16T01:27:46.277Z,2.50
2019-01-16T01:30:30.973Z,2.50
2019-01-16T01:33:27.396Z,2.50
2019-01-16T01:36:12.865Z,2.40
2019-01-16T01:38:58.729Z,2.50
2019-01-16T01:41:48.753Z,2.50
2019-01-16T01:44:41.588Z,2.60
2019-01-16T01:47:27.349Z,2.60
2019-01-16T01:50:03.166Z,2.80
2019-01-16T01:52:56.052Z,2.80
2019-01-16T01:55:51.878Z,2.90
2019-01-16T01:58:44.713Z,2.90
2019-01-16T02:01:37.507Z,3.00
2019-01-16T02:04:27.285Z,3.00
2019-01-16T02:07:20.299Z,3.00
2019-01-16T02:10:16.078Z,3.00
2019-01-16T02:13:04.619Z,2.90
2019-01-16T02:16:10.254Z,2.90
2019-01-16T02:18:59.738Z,2.80
2019-01-16T02:22:01.791Z,2.80
2019-01-16T02:24:57.794Z,2.70
2019-01-16T02:27:37.129Z,2.70
2019-01-16T02:30:25.526Z,2.70
2019-01-16T02:33:12.660Z,2.70
2019-01-16T02:36:06.421Z,2.60
2019-01-16T02:38:49.929Z,2.60
2019-01-16T02:41:42.946Z,2.50
2019-01-16T02:44:35.725Z,2.50
2019-01-16T02:47:14.534Z,2.50
2019-01-16T02:49:52.650Z,2.40
2019-01-16T02:52:42.746Z,2.50
2019-01-16T02:55:38.796Z,2.50
2019-01-16T02:58:33.786Z,2.50
2019-01-16T03:01:21.000Z,2.80
2019-01-16T03:04:06.226Z,3.10
2019-01-16T03:06:52.785Z,3.30
2019-01-16T03:09:36.411Z,3.40
2019-01-16T03:12:23.536Z,3.40
2019-01-16T03:15:05.114Z,3.40
2019-01-16T03:18:07.516Z,3.40
2019-01-16T03:20:57.559Z,3.50
2019-01-16T03:23:53.772Z,3.50
2019-01-16T03:26:36.233Z,3.40
2019-01-16T03:29:12.050Z,3.40
2019-01-16T03:31:48.695Z,3.40
2019-01-16T03:34:40.766Z,3.40
2019-01-16T03:37:21.146Z,3.30
2019-01-16T03:40:06.903Z,3.30
2019-01-16T03:42:42.543Z,3.30
2019-01-16T03:45:32.513Z,3.30
2019-01-16T03:48:34.642Z,3.30
2019-01-16T03:51:22.426Z,3.30
2019-01-16T03:54:06.490Z,3.30
2019-01-16T03:56:59.293Z,3.20
2019-01-16T03:59:46.538Z,3.20
2019-01-16T04:02:32.246Z,3.20
2019-01-16T04:05:19.487Z,3.20
2019-01-16T04:08:05.182Z,3.20
2019-01-16T04:11:07.350Z,3.20
2019-01-16T04:13:57.506Z,3.20
2019-01-16T04:16:47.591Z,3.20
2019-01-16T04:19:37.626Z,3.20
2019-01-16T04:22:30.706Z,3.30
2019-01-16T04:25:23.724Z,3.20
2019-01-16T04:28:10.954Z,3.20
2019-01-16T04:31:13.370Z,3.10
2019-01-16T04:34:15.605Z,3.10
2019-01-16T04:37:05.626Z,3.10
2019-01-16T04:39:52.867Z,3.10
2019-01-16T04:42:38.006Z,3.10
2019-01-16T04:45:27.900Z,3.10
2019-01-16T04:48:23.937Z,3.00
2019-01-16T04:51:23.003Z,2.90
2019-01-16T04:54:08.606Z,2.90
2019-01-16T04:57:08.071Z,2.80
2019-01-16T04:59:49.949Z,2.80
2019-01-16T05:02:35.830Z,2.70
2019-01-16T05:05:22.569Z,2.70
2019-01-16T05:08:08.331Z,2.70
2019-01-16T05:11:01.777Z,2.60
2019-01-16T05:13:51.570Z,2.60
2019-01-16T05:16:38.802Z,2.60
2019-01-16T05:19:26.015Z,2.60
2019-01-16T05:22:11.718Z,2.50
2019-01-16T05:24:50.511Z,2.50
2019-01-16T05:27:49.902Z,2.50
2019-01-16T05:30:35.531Z,2.50
2019-01-16T05:33:31.642Z,2.40
2019-01-16T05:36:18.854Z,2.40
2019-01-16T05:39:01.145Z,2.40
2019-01-16T05:41:51.266Z,2.30
2019-01-16T05:44:50.234Z,2.20
2019-01-16T05:47:37.437Z,2.10
2019-01-16T05:50:28.981Z,2.10
2019-01-16T05:53:18.978Z,2.10
2019-01-16T05:56:24.538Z,2.10
2019-01-16T05:59:23.625Z,2.10
2019-01-16T06:02:09.660Z,2.10
2019-01-16T06:04:55.273Z,2.10
2019-01-16T06:07:42.518Z,2.20
2019-01-16T06:10:28.962Z,2.20
2019-01-16T06:13:14.946Z,2.20
2019-01-16T06:16:00.466Z,2.30
2019-01-16T06:18:56.550Z,2.30
2019-01-16T06:21:42.113Z,2.30
2019-01-16T06:24:29.366Z,2.30
2019-01-16T06:27:19.806Z,2.30
2019-01-16T06:30:09.910Z,2.20
2019-01-16T06:33:12.075Z,2.10
2019-01-16T06:35:54.993Z,2.10
2019-01-16T06:38:57.426Z,2.10
2019-01-16T06:41:44.626Z,2.10
2019-01-16T06:44:34.359Z,2.10
2019-01-16T06:47:10.178Z,2.10
2019-01-16T06:49:47.313Z,2.20
2019-01-16T06:52:29.466Z,2.20
2019-01-16T06:55:07.069Z,2.20
2019-01-16T06:57:52.520Z,2.20
2019-01-16T07:00:31.837Z,2.20
2019-01-16T07:03:33.717Z,2.30
2019-01-16T07:06:19.703Z,2.20
2019-01-16T07:09:15.885Z,2.20
2019-01-16T07:12:02.077Z,2.20
2019-01-16T07:14:49.285Z,2.20
2019-01-16T07:17:50.017Z,2.20
2019-01-16T07:20:35.568Z,2.30
2019-01-16T07:23:13.610Z,2.30
2019-01-16T07:26:03.785Z,2.30
2019-01-16T07:28:53.746Z,2.30
2019-01-16T07:31:28.921Z,2.30
2019-01-16T07:34:14.474Z,2.40
2019-01-16T07:37:05.095Z,2.50
2019-01-16T07:39:42.681Z,2.50
2019-01-16T07:42:32.638Z,2.50
2019-01-16T07:45:22.305Z,2.60
2019-01-16T07:48:01.545Z,2.70
2019-01-16T07:50:43.178Z,2.80
2019-01-16T07:53:30.137Z,2.80
2019-01-16T07:56:17.425Z,3.00
2019-01-16T07:58:55.457Z,3.00
2019-01-16T08:01:38.102Z,3.20
2019-01-16T08:04:28.292Z,3.30
2019-01-16T08:07:15.457Z,3.40
2019-01-16T08:10:01.209Z,3.50
2019-01-16T08:12:47.021Z,3.60
2019-01-16T08:15:37.013Z,3.70
2019-01-16T08:18:26.996Z,3.80
2019-01-16T08:21:12.245Z,3.90
2019-01-16T08:23:59.377Z,4.00
2019-01-16T08:26:45.494Z,4.10
2019-01-16T08:29:33.005Z,4.30
2019-01-16T08:32:11.794Z,4.40
2019-01-16T08:35:01.261Z,4.40
2019-01-16T08:37:50.997Z,4.50
2019-01-16T08:40:44.485Z,4.60
2019-01-16T08:43:21.846Z,4.70
2019-01-16T08:46:14.173Z,4.80
2019-01-16T08:49:05.855Z,4.90
2019-01-16T08:52:08.141Z,5.00
2019-01-16T08:55:07.549Z,5.10
2019-01-16T08:57:54.845Z,5.20
2019-01-16T09:00:44.955Z,5.30
2019-01-16T09:03:30.817Z,5.40
2019-01-16T09:06:33.197Z,5.50
2019-01-16T09:09:32.350Z,5.60
2019-01-16T09:12:28.321Z,5.70
2019-01-16T09:15:24.674Z,5.80
2019-01-16T09:17:59.851Z,5.90
2019-01-16T09:20:49.637Z,6.10
2019-01-16T09:23:38.453Z,6.20
2019-01-16T09:26:22.227Z,6.30
2019-01-16T09:29:24.278Z,6.40
2019-01-16T09:32:17.413Z,6.50
2019-01-16T09:35:04.509Z,6.60
2019-01-16T09:37:41.501Z,6.70
2019-01-16T09:40:22.270Z,6.80
2019-01-16T09:43:18.277Z,6.90
2019-01-16T09:46:14.024Z,7.00
2019-01-16T09:49:06.765Z,7.10
2019-01-16T09:52:02.740Z,7.20
2019-01-16T09:54:55.786Z,7.30
2019-01-16T09:57:42.184Z,7.40
2019-01-16T10:00:31.453Z,7.40
2019-01-16T10:03:17.178Z,7.50
2019-01-16T10:06:03.025Z,7.60
2019-01-16T10:09:02.274Z,7.70
2019-01-16T10:11:55.321Z,7.80
2019-01-16T10:14:45.085Z,7.80
2019-01-16T10:17:24.859Z,7.90
2019-01-16T10:20:14.781Z,8.00
2019-01-16T10:23:04.457Z,8.10
2019-01-16T10:25:54.512Z,8.20
2019-01-16T10:28:53.496Z,8.20
2019-01-16T10:31:55.560Z,8.30
2019-01-16T10:34:36.065Z,8.30
2019-01-16T10:37:11.780Z,8.40
2019-01-16T10:39:53.833Z,8.50
2019-01-16T10:42:40.973Z,8.60
2019-01-16T10:45:33.703Z,8.70
2019-01-16T10:48:21.102Z,8.80
2019-01-16T10:51:03.032Z,8.90
2019-01-16T10:53:54.373Z,9.00
2019-01-16T10:56:47.110Z,9.10
2019-01-16T10:59:30.316Z,9.20
2019-01-16T11:02:06.613Z,9.20
2019-01-16T11:04:52.452Z,9.30
2019-01-16T11:07:48.428Z,9.50
2019-01-16T11:10:25.477Z,9.50
2019-01-16T11:13:24.599Z,9.60
2019-01-16T11:16:20.265Z,9.70
2019-01-16T11:19:19.135Z,9.70
2019-01-16T11:22:17.953Z,9.90
2019-01-16T11:25:05.109Z,10.00
2019-01-16T11:27:50.999Z,10.10
2019-01-16T11:30:56.545Z,10.10
2019-01-16T11:33:42.112Z,10.20
2019-01-16T11:36:21.330Z,10.20
2019-01-16T11:39:04.765Z,10.30
2019-01-16T11:41:51.927Z,10.40
2019-01-16T11:44:37.539Z,10.40
2019-01-16T11:47:39.803Z,10.50
2019-01-16T11:50:25.297Z,10.60
2019-01-16T11:53:30.619Z,10.60
2019-01-16T11:56:16.273Z,10.70
2019-01-16T11:59:13.987Z,10.70
2019-01-16T12:02:01.131Z,10.80
2019-01-16T12:05:03.241Z,10.90
2019-01-16T12:07:51.345Z,10.90
2019-01-16T12:10:36.800Z,11.00
2019-01-16T12:13:13.965Z,11.00
2019-01-16T12:16:01.115Z,11.00
2019-01-16T12:19:06.521Z,11.10
2019-01-16T12:22:08.973Z,11.20
2019-01-16T12:24:51.337Z,11.20
2019-01-16T12:27:38.476Z,11.30
2019-01-16T12:30:20.423Z,11.30
2019-01-16T12:32:58.934Z,11.30
2019-01-16T12:35:44.626Z,11.30
2019-01-16T12:38:19.858Z,11.40
2019-01-16T12:41:03.949Z,11.30
2019-01-16T12:43:56.887Z,11.30
2019-01-16T12:46:42.370Z,11.30
2019-01-16T12:49:35.489Z,11.40
2019-01-16T12:52:22.662Z,11.40
2019-01-16T12:55:02.297Z,11.40
2019-01-16T12:58:03.162Z,11.50
2019-01-16T13:00:50.361Z,11.50
2019-01-16T13:03:49.893Z,11.50
2019-01-16T13:06:37.117Z,11.50
2019-01-16T13:09:32.613Z,11.60
2019-01-16T13:12:19.753Z,11.60
2019-01-16T13:15:09.789Z,11.70
2019-01-16T13:17:55.556Z,11.70
2019-01-16T13:20:45.529Z,11.70
2019-01-16T13:23:32.669Z,11.80
2019-01-16T13:26:18.560Z,11.80
2019-01-16T13:29:20.881Z,11.80
2019-01-16T13:32:10.833Z,11.90
2019-01-16T13:35:09.828Z,11.90
2019-01-16T13:37:49.808Z,11.90
2019-01-16T13:40:35.793Z,11.90
2019-01-16T13:43:18.365Z,11.90
2019-01-16T13:46:01.982Z,12.00
2019-01-16T13:48:52.888Z,12.00
2019-01-16T13:51:32.138Z,12.00
2019-01-16T13:54:34.587Z,11.90
2019-01-16T13:57:16.977Z,11.90
2019-01-16T14:00:10.941Z,11.90
2019-01-16T14:03:00.949Z,11.90
2019-01-16T14:05:36.279Z,11.90
2019-01-16T14:08:12.841Z,11.90
2019-01-16T14:11:02.524Z,11.90
2019-01-16T14:13:49.652Z,11.90
2019-01-16T14:16:51.681Z,11.90
2019-01-16T14:19:44.865Z,11.90
2019-01-16T14:22:50.054Z,11.90
2019-01-16T14:25:43.227Z,11.90
2019-01-16T14:28:26.229Z,11.90
2019-01-16T14:31:28.333Z,11.90
2019-01-16T14:34:18.249Z,11.90
2019-01-16T14:37:03.878Z,11.90
2019-01-16T14:39:49.644Z,11.90
2019-01-16T14:42:35.570Z,11.90
2019-01-16T14:45:23.075Z,11.90
2019-01-16T14:48:02.686Z,11.90
2019-01-16T14:50:41.530Z,11.90
2019-01-16T14:53:37.817Z,11.90
2019-01-16T14:56:24.981Z,11.90
2019-01-16T14:59:10.993Z,11.80
2019-01-16T15:02:03.840Z,11.80
2019-01-16T15:04:49.362Z,11.70
2019-01-16T15:07:36.533Z,11.70
2019-01-16T15:10:24.220Z,11.70
2019-01-16T15:13:09.131Z,11.60
2019-01-16T15:15:53.325Z,11.60
2019-01-16T15:18:43.037Z,11.60
2019-01-16T15:21:30.187Z,11.60
2019-01-16T15:24:10.895Z,11.50
2019-01-16T15:27:03.593Z,11.50
2019-01-16T15:29:53.335Z,11.50
2019-01-16T15:32:39.066Z,11.50
2019-01-16T15:35:25.536Z,11.40
2019-01-16T15:38:27.757Z,11.40
2019-01-16T15:41:20.986Z,11.30
2019-01-16T15:44:26.317Z,11.20
2019-01-16T15:47:22.132Z,11.20
2019-01-16T15:50:06.549Z,11.10
2019-01-16T15:52:59.431Z,11.10
2019-01-16T15:55:46.574Z,11.00
2019-01-16T15:58:25.865Z,10.90
2019-01-16T16:01:13.034Z,10.90
2019-01-16T16:03:48.809Z,10.80
2019-01-16T16:06:33.257Z,10.70
2019-01-16T16:09:32.030Z,10.70
2019-01-16T16:12:19.253Z,10.60
2019-01-16T16:15:04.790Z,10.50
2019-01-16T16:17:58.000Z,10.40
2019-01-16T16:20:53.994Z,10.30
2019-01-16T16:23:38.606Z,10.10
2019-01-16T16:26:24.069Z,10.00
2019-01-16T16:29:09.803Z,9.90
2019-01-16T16:31:59.998Z,9.80
2019-01-16T16:34:49.825Z,9.60
2019-01-16T16:37:34.646Z,9.50
2019-01-16T16:40:27.430Z,9.40
2019-01-16T16:43:12.305Z,9.30
2019-01-16T16:46:05.533Z,9.20
2019-01-16T16:48:54.318Z,9.20
2019-01-16T16:51:46.022Z,9.20
2019-01-16T16:54:31.564Z,9.10
2019-01-16T16:57:13.863Z,9.20
2019-01-16T17:00:12.797Z,9.10
2019-01-16T17:02:58.347Z,9.00
2019-01-16T17:05:48.358Z,8.90
2019-01-16T17:08:33.911Z,8.90
2019-01-16T17:11:11.617Z,8.80
2019-01-16T17:14:02.837Z,8.80
2019-01-16T17:16:52.706Z,8.70
2019-01-16T17:19:43.772Z,8.70
2019-01-16T17:22:33.921Z,8.60
2019-01-16T17:25:21.050Z,8.60
2019-01-16T17:28:20.273Z,8.60
2019-01-16T17:31:19.113Z,8.50
2019-01-16T17:34:24.582Z,8.40
2019-01-16T17:37:11.673Z,8.40
2019-01-16T17:40:03.065Z,8.30
2019-01-16T17:42:59.129Z,8.20
2019-01-16T17:45:55.009Z,8.30
2019-01-16T17:48:44.807Z,8.40
2019-01-16T17:51:50.241Z,8.40
2019-01-16T17:54:40.280Z,8.30
2019-01-16T17:57:30.132Z,8.20
2019-01-16T18:00:28.895Z,8.00
2019-01-16T18:03:26.933Z,7.90
2019-01-16T18:06:14.113Z,7.80
2019-01-16T18:09:06.973Z,7.60
2019-01-16T18:11:52.629Z,7.50
2019-01-16T18:14:48.597Z,7.50
2019-01-16T18:17:33.933Z,7.50
2019-01-16T18:20:26.908Z,7.50
2019-01-16T18:23:31.801Z,7.50
2019-01-16T18:26:24.506Z,7.50
2019-01-16T18:29:15.425Z,7.50
2019-01-16T18:32:08.392Z,7.50
2019-01-16T18:34:58.109Z,7.50
2019-01-16T18:37:35.761Z,7.40
2019-01-16T18:40:14.593Z,7.40
2019-01-16T18:43:10.553Z,7.30
2019-01-16T18:46:06.519Z,7.20
2019-01-16T18:48:53.692Z,7.10
2019-01-16T18:51:39.017Z,7.10
2019-01-16T18:54:29.008Z,7.00
2019-01-16T18:57:19.021Z,6.90
2019-01-16T19:00:04.476Z,6.90
2019-01-16T19:02:50.073Z,6.80
2019-01-16T19:05:36.017Z,6.80
2019-01-16T19:08:25.969Z,6.70
2019-01-16T19:11:13.100Z,6.70
2019-01-16T19:14:02.860Z,6.70
2019-01-16T19:16:52.834Z,6.70
2019-01-16T19:19:32.690Z,6.70
2019-01-16T19:22:19.821Z,6.60
2019-01-16T19:24:56.617Z,6.50
2019-01-16T19:27:41.670Z,6.50
2019-01-16T19:30:22.301Z,6.40
2019-01-16T19:33:18.549Z,6.40
2019-01-16T19:36:04.088Z,6.30
2019-01-16T19:38:49.951Z,6.30
2019-01-16T19:41:37.852Z,6.20
2019-01-16T19:44:24.982Z,6.30
2019-01-16T19:47:05.830Z,6.30
2019-01-16T19:49:52.957Z,6.30
2019-01-16T19:52:34.737Z,6.30
2019-01-16T19:55:20.515Z,6.40
2019-01-16T19:58:19.680Z,6.50
2019-01-16T20:01:06.798Z,6.70
2019-01-16T20:04:03.040Z,6.80
2019-01-16T20:06:55.905Z,7.00
2019-01-16T20:09:42.913Z,7.10
2019-01-16T20:12:28.625Z,7.20
2019-01-16T20:18:01.762Z,7.30
2019-01-16T20:20:54.931Z,7.40
2019-01-16T20:23:38.689Z,7.40
2019-01-16T20:26:43.680Z,7.40
2019-01-16T20:29:39.641Z,7.40
2019-01-16T20:32:26.781Z,7.20
2019-01-16T20:35:10.905Z,7.10
2019-01-16T20:37:54.865Z,7.20
2019-01-16T20:40:47.648Z,7.20
2019-01-16T20:43:49.745Z,7.30
2019-01-16T20:46:35.857Z,7.30
2019-01-16T20:49:23.041Z,7.20
2019-01-16T20:52:18.710Z,7.20
2019-01-16T20:55:00.789Z,7.20
2019-01-16T20:57:42.425Z,7.30
2019-01-16T21:00:30.951Z,7.30
2019-01-16T21:03:27.078Z,7.30
2019-01-16T21:06:19.812Z,7.30
2019-01-16T21:09:05.353Z,7.30
2019-01-16T21:12:01.694Z,7.40
2019-01-16T21:14:42.870Z,7.30
2019-01-16T21:17:31.174Z,7.30
2019-01-16T21:20:12.993Z,7.20
2019-01-16T21:23:05.508Z,7.30
2019-01-16T21:25:55.449Z,7.40
2019-01-16T21:28:42.717Z,7.40
2019-01-16T21:31:29.863Z,7.30
2019-01-16T21:34:17.298Z,7.20
2019-01-16T21:37:04.567Z,7.10
2019-01-16T21:39:57.552Z,7.00
2019-01-16T21:42:54.185Z,7.00
2019-01-16T21:45:56.756Z,6.70
2019-01-16T21:48:47.059Z,6.60
2019-01-16T21:51:44.204Z,6.60
2019-01-16T21:54:31.438Z,6.70
2019-01-16T21:57:27.713Z,6.80
2019-01-16T22:00:20.609Z,7.00
2019-01-16T22:03:17.105Z,7.10
2019-01-16T22:06:10.592Z,7.30
2019-01-16T22:08:56.597Z,7.40
2019-01-16T22:11:59.031Z,7.40
2019-01-16T22:14:38.629Z,7.40
2019-01-16T22:17:36.971Z,7.40
2019-01-16T22:20:23.197Z,7.40
2019-01-16T22:23:18.487Z,7.40
2019-01-16T22:26:11.680Z,7.30
2019-01-16T22:28:57.784Z,7.20
2019-01-16T22:31:53.961Z,7.10
2019-01-16T22:34:40.925Z,7.00
2019-01-16T22:37:17.768Z,7.00
2019-01-16T22:40:03.269Z,7.00
2019-01-16T22:42:50.432Z,7.00
2019-01-16T22:45:52.210Z,7.10
2019-01-16T22:48:42.605Z,7.30
2019-01-16T22:51:38.433Z,7.40
2019-01-16T22:54:40.269Z,7.20
2019-01-16T22:57:27.397Z,7.20
2019-01-16T23:03:10.562Z,7.20
2019-01-16T23:05:56.496Z,7.10
2019-01-16T23:08:31.425Z,7.10
2019-01-16T23:11:16.653Z,7.10
2019-01-16T23:14:02.177Z,7.10
2019-01-16T23:16:43.891Z,7.10
2019-01-16T23:19:23.647Z,7.20
2019-01-16T23:22:09.693Z,7.30
2019-01-16T23:24:56.689Z,7.40
2019-01-16T23:27:43.849Z,7.40
2019-01-16T23:30:32.367Z,7.40
2019-01-16T23:33:20.354Z,7.20
2019-01-16T23:36:07.485Z,7.10
2019-01-16T23:39:00.285Z,7.00
2019-01-16T23:41:38.845Z,7.00
2019-01-16T23:44:26.292Z,6.80
2019-01-16T23:47:10.680Z,6.80
2019-01-16T23:49:57.829Z,6.70
2019-01-16T23:53:02.893Z,6.50
2019-01-16T23:55:52.602Z,6.40
2019-01-16T23:58:45.570Z,6.30
